createdAt,value
2022-09-10T00:01:30.073Z,6.20
2022-09-10T00:03:57.066Z,5.88
2022-09-10T00:06:26.237Z,6.32
2022-09-10T00:08:56.510Z,7.53
2022-09-10T00:11:25.402Z,5.55
2022-09-10T00:13:52.786Z,5.78
2022-09-10T00:16:20.364Z,6.30
2022-09-10T00:18:48.560Z,6.70
2022-09-10T00:21:20.323Z,7.80
2022-09-10T00:23:48.253Z,7.88
2022-09-10T00:26:23.419Z,10.65
2022-09-10T00:28:52.312Z,9.95
2022-09-10T00:31:21.912Z,7.32
2022-09-10T00:33:54.977Z,8.10
2022-09-10T00:36:27.903Z,11.10
2022-09-10T00:38:59.034Z,9.95
2022-09-10T00:41:26.939Z,9.02
2022-09-10T00:44:04.120Z,12.10
2022-09-10T00:46:50.214Z,8.77
2022-09-10T00:49:21.394Z,11.05
2022-09-10T00:51:52.936Z,11.93
2022-09-10T00:54:24.005Z,12.35
2022-09-10T00:56:53.631Z,14.75
2022-09-10T00:59:23.342Z,13.82
2022-09-10T01:01:50.574Z,9.48
2022-09-10T01:04:17.602Z,12.07
2022-09-10T01:06:46.232Z,14.45
2022-09-10T01:09:14.222Z,15.13
2022-09-10T01:12:06.076Z,13.48
2022-09-10T01:14:58.072Z,11.90
2022-09-10T01:17:47.873Z,14.02
2022-09-10T01:20:37.239Z,9.88
2022-09-10T01:23:22.764Z,13.65
2022-09-10T01:26:16.530Z,8.98
2022-09-10T01:29:02.118Z,12.40
2022-09-10T01:31:51.240Z,11.70
2022-09-10T01:34:37.363Z,11.27
2022-09-10T01:37:10.270Z,16.02
2022-09-10T01:39:38.667Z,13.32
2022-09-10T01:42:07.342Z,15.95
2022-09-10T01:44:56.932Z,17.10
2022-09-10T01:47:53.633Z,19.40
2022-09-10T01:53:28.928Z,16.60
2022-09-10T01:56:37.316Z,17.35
2022-09-10T01:59:51.341Z,19.58
2022-09-10T02:02:37.127Z,18.25
2022-09-10T02:05:06.852Z,19.63
2022-09-10T02:07:36.299Z,18.23
2022-09-10T02:10:06.940Z,16.17
2022-09-10T02:12:40.103Z,17.42
2022-09-10T02:15:28.903Z,18.08
2022-09-10T02:18:11.233Z,14.10
2022-09-10T02:20:39.283Z,16.15
2022-09-10T02:23:07.917Z,17.02
2022-09-10T02:25:37.379Z,18.38
2022-09-10T02:28:05.959Z,19.20
2022-09-10T02:30:32.860Z,16.02
2022-09-10T02:33:00.340Z,14.02
2022-09-10T02:35:27.374Z,16.02
2022-09-10T02:37:54.863Z,16.20
2022-09-10T02:40:21.765Z,19.42
2022-09-10T02:42:49.740Z,19.40
2022-09-10T02:45:26.150Z,17.13
2022-09-10T02:47:53.640Z,20.98
2022-09-10T02:50:23.027Z,24.27
2022-09-10T02:52:52.065Z,22.55
2022-09-10T02:55:19.131Z,23.48
2022-09-10T02:57:47.052Z,23.33
2022-09-10T03:00:14.351Z,19.65
2022-09-10T03:02:41.503Z,17.38
2022-09-10T03:05:08.891Z,23.80
2022-09-10T03:07:35.957Z,24.08
2022-09-10T03:10:03.451Z,18.02
2022-09-10T03:12:30.351Z,19.33
2022-09-10T03:14:58.412Z,17.98
2022-09-10T03:17:26.190Z,14.25
2022-09-10T03:19:55.373Z,19.23
2022-09-10T03:22:22.374Z,22.92
2022-09-10T03:24:49.558Z,19.15
2022-09-10T03:27:17.507Z,14.77
2022-09-10T03:29:45.411Z,18.95
2022-09-10T03:32:14.390Z,17.88
2022-09-10T03:34:41.252Z,17.92
2022-09-10T03:37:08.224Z,22.48
2022-09-10T03:39:36.266Z,20.70
2022-09-10T03:42:05.354Z,14.82
2022-09-10T03:44:33.974Z,19.17
2022-09-10T03:47:01.796Z,22.90
2022-09-10T03:49:29.663Z,16.73
2022-09-10T03:51:56.986Z,18.48
2022-09-10T03:54:24.759Z,16.10
2022-09-10T03:56:51.785Z,17.83
2022-09-10T03:59:18.719Z,21.83
2022-09-10T04:01:46.769Z,14.73
2022-09-10T04:04:15.007Z,17.52
2022-09-10T04:06:43.092Z,19.25
2022-09-10T04:09:14.934Z,20.50
2022-09-10T04:11:42.675Z,17.75
2022-09-10T04:14:10.474Z,15.07
2022-09-10T04:16:40.083Z,16.60
2022-09-10T04:19:09.068Z,15.80
2022-09-10T04:21:36.641Z,16.67
2022-09-10T04:24:03.851Z,12.73
2022-09-10T04:26:30.992Z,14.95
2022-09-10T04:28:57.974Z,12.65
2022-09-10T04:31:24.964Z,15.25
2022-09-10T04:33:56.371Z,14.60
2022-09-10T04:36:26.221Z,15.13
2022-09-10T04:38:53.557Z,15.25
2022-09-10T04:41:20.600Z,17.65
2022-09-10T04:43:48.176Z,14.60
2022-09-10T04:46:15.899Z,17.63
2022-09-10T04:48:43.480Z,14.38
2022-09-10T04:51:16.500Z,17.55
2022-09-10T04:53:46.378Z,20.27
2022-09-10T04:56:13.699Z,15.70
2022-09-10T04:58:41.878Z,18.85
2022-09-10T05:01:09.520Z,14.85
2022-09-10T05:03:37.578Z,17.08
2022-09-10T05:06:06.604Z,21.42
2022-09-10T05:08:33.824Z,15.52
2022-09-10T05:11:03.767Z,16.95
2022-09-10T05:13:31.691Z,19.88
2022-09-10T05:16:00.283Z,16.65
2022-09-10T05:18:27.451Z,19.13
2022-09-10T05:20:54.763Z,19.85
2022-09-10T05:23:21.896Z,16.77
2022-09-10T05:25:49.765Z,15.40
2022-09-10T05:28:17.894Z,16.60
2022-09-10T05:30:49.544Z,17.17
2022-09-10T05:33:21.465Z,19.15
2022-09-10T05:35:51.941Z,21.83
2022-09-10T05:38:20.460Z,16.13
2022-09-10T05:40:48.732Z,18.83
2022-09-10T05:43:15.853Z,23.10
2022-09-10T05:45:44.755Z,19.17
2022-09-10T05:48:11.957Z,18.25
2022-09-10T05:50:40.656Z,17.52
2022-09-10T05:53:09.765Z,22.58
2022-09-10T05:55:38.024Z,14.38
2022-09-10T05:58:06.178Z,15.02
2022-09-10T06:03:04.811Z,18.55
2022-09-10T06:05:50.704Z,19.65
2022-09-10T06:08:24.173Z,18.27
2022-09-10T06:11:00.347Z,16.17
2022-09-10T06:13:30.348Z,19.60
2022-09-10T06:15:58.566Z,15.63
2022-09-10T06:18:28.134Z,20.35
2022-09-10T06:21:11.932Z,13.10
2022-09-10T06:23:40.306Z,12.65
2022-09-10T06:26:12.874Z,18.23
2022-09-10T06:28:40.843Z,19.75
2022-09-10T06:31:09.082Z,10.77
2022-09-10T06:33:37.763Z,17.35
2022-09-10T06:36:06.165Z,16.02
2022-09-10T06:38:33.938Z,19.15
2022-09-10T06:41:04.746Z,17.45
2022-09-10T06:43:40.134Z,19.85
2022-09-10T06:46:32.321Z,15.82
2022-09-10T06:49:13.246Z,16.02
2022-09-10T06:51:42.890Z,16.38
2022-09-10T06:54:10.775Z,17.65
2022-09-10T06:56:38.259Z,14.35
2022-09-10T06:59:05.445Z,13.85
2022-09-10T07:01:38.246Z,18.00
2022-09-10T07:04:06.847Z,14.70
2022-09-10T07:06:36.169Z,17.05
2022-09-10T07:09:11.342Z,14.00
2022-09-10T07:12:09.454Z,16.73
2022-09-10T07:14:38.992Z,16.55
2022-09-10T07:17:08.354Z,17.20
2022-09-10T07:19:37.759Z,16.58
2022-09-10T07:22:11.710Z,17.35
2022-09-10T07:24:39.215Z,16.10
2022-09-10T07:27:11.094Z,15.13
2022-09-10T07:29:40.460Z,13.80
2022-09-10T07:32:13.652Z,12.32
2022-09-10T07:34:41.309Z,12.18
2022-09-10T07:37:08.266Z,12.27
2022-09-10T07:39:35.474Z,11.45
2022-09-10T07:42:03.095Z,7.72
2022-09-10T07:44:34.929Z,9.07
2022-09-10T07:47:03.563Z,10.65
2022-09-10T07:49:32.728Z,8.45
2022-09-10T07:52:00.432Z,8.55
2022-09-10T07:54:32.887Z,8.23
2022-09-10T07:57:00.666Z,8.63
2022-09-10T07:59:28.183Z,5.97
2022-09-10T08:02:01.434Z,6.20
2022-09-10T08:04:36.777Z,6.07
2022-09-10T08:07:07.842Z,5.03
2022-09-10T08:09:37.734Z,6.18
2022-09-10T08:12:07.812Z,4.80
2022-09-10T08:14:38.349Z,5.25
2022-09-10T08:17:06.094Z,5.07
2022-09-10T08:19:38.284Z,4.97
2022-09-10T08:22:09.184Z,4.70
2022-09-10T08:24:43.215Z,3.72
2022-09-10T08:27:11.870Z,4.10
2022-09-10T08:29:39.882Z,3.08
2022-09-10T08:32:09.756Z,2.63
2022-09-10T08:34:36.652Z,3.33
2022-09-10T08:37:08.016Z,3.53
2022-09-10T08:39:36.882Z,3.40
2022-09-10T08:42:32.321Z,2.92
2022-09-10T08:45:06.713Z,2.20
2022-09-10T08:47:53.387Z,2.78
2022-09-10T08:50:41.731Z,4.70
2022-09-10T08:53:26.059Z,4.50
2022-09-10T08:55:58.095Z,3.67
2022-09-10T08:58:44.949Z,3.47
2022-09-10T09:01:21.013Z,6.25
2022-09-10T09:03:48.709Z,6.43
2022-09-10T09:06:26.961Z,6.43
2022-09-10T09:08:56.160Z,6.75
2022-09-10T09:11:56.481Z,5.30
2022-09-10T09:14:28.056Z,4.07
2022-09-10T09:16:59.754Z,4.50
2022-09-10T09:19:45.137Z,5.18
2022-09-10T09:22:18.628Z,4.82
2022-09-10T09:27:27.596Z,3.53
2022-09-10T09:30:02.434Z,3.63
2022-09-10T09:32:35.861Z,4.28
2022-09-10T09:35:16.879Z,4.03
2022-09-10T09:37:50.178Z,4.55
2022-09-10T09:40:31.557Z,4.43
2022-09-10T09:43:05.166Z,4.75
2022-09-10T09:45:42.487Z,4.03
2022-09-10T09:48:16.168Z,2.67
2022-09-10T09:50:48.199Z,3.50
2022-09-10T09:53:27.045Z,3.40
2022-09-10T09:55:54.134Z,3.92
2022-09-10T09:58:26.962Z,2.60
2022-09-10T10:01:16.033Z,2.80
2022-09-10T10:03:54.562Z,2.60
2022-09-10T10:06:45.412Z,2.40
2022-09-10T10:09:20.933Z,3.30
2022-09-10T10:11:51.895Z,2.60
2022-09-10T10:14:25.395Z,3.00
2022-09-10T10:16:57.365Z,2.88
2022-09-10T10:19:41.133Z,3.30
2022-09-10T10:22:14.455Z,2.22
2022-09-10T10:24:42.828Z,3.40
2022-09-10T10:27:36.565Z,3.72
2022-09-10T10:30:03.343Z,3.70
2022-09-10T10:32:54.115Z,2.92
2022-09-10T10:35:33.164Z,2.70
2022-09-10T10:38:17.394Z,3.00
2022-09-10T10:41:26.810Z,4.07
2022-09-10T10:44:06.671Z,3.42
2022-09-10T10:46:53.387Z,2.88
2022-09-10T10:49:48.244Z,4.07
2022-09-10T10:52:27.114Z,4.45
2022-09-10T10:54:57.043Z,4.00
2022-09-10T10:57:33.915Z,4.10
2022-09-10T11:00:13.052Z,3.90
2022-09-10T11:03:06.814Z,3.63
2022-09-10T11:05:41.532Z,3.30
2022-09-10T11:08:17.943Z,3.40
2022-09-10T11:11:06.762Z,3.60
2022-09-10T11:13:43.969Z,3.40
2022-09-10T11:16:22.065Z,3.92
2022-09-10T11:19:01.879Z,4.80
2022-09-10T11:21:50.691Z,3.80
2022-09-10T11:24:27.126Z,4.85
2022-09-10T11:27:14.862Z,5.68
2022-09-10T11:29:50.134Z,4.72
2022-09-10T11:32:27.535Z,4.75
2022-09-10T11:35:17.076Z,2.70
2022-09-10T11:37:51.903Z,3.17
2022-09-10T11:40:26.451Z,2.92
2022-09-10T11:43:06.171Z,3.38
2022-09-10T11:45:54.834Z,2.53
2022-09-10T11:48:49.957Z,2.28
2022-09-10T11:51:26.724Z,3.33
2022-09-10T11:53:57.932Z,3.22
2022-09-10T11:56:50.144Z,3.00
2022-09-10T11:59:48.023Z,2.72
2022-09-10T12:02:38.666Z,2.53
2022-09-10T12:05:19.460Z,2.22
2022-09-10T12:08:11.503Z,2.72
2022-09-10T12:10:59.915Z,2.03
2022-09-10T12:13:27.233Z,2.67
2022-09-10T12:15:59.915Z,2.75
2022-09-10T12:18:42.835Z,2.83
2022-09-10T12:21:28.152Z,2.90
2022-09-10T12:23:56.796Z,2.70
2022-09-10T12:26:27.313Z,2.67
2022-09-10T12:28:59.050Z,2.40
2022-09-10T12:31:27.806Z,2.70
2022-09-10T12:36:28.682Z,2.53
2022-09-10T12:39:16.629Z,2.10
2022-09-10T12:41:43.547Z,2.00
2022-09-10T12:44:35.357Z,2.30
2022-09-10T12:47:17.875Z,2.20
2022-09-10T12:49:57.495Z,2.08
2022-09-10T12:52:39.161Z,1.95
2022-09-10T12:55:39.652Z,2.40
2022-09-10T12:58:37.311Z,2.20
2022-09-10T13:01:38.229Z,2.00
2022-09-10T13:04:06.131Z,2.30
2022-09-10T13:06:40.057Z,2.00
2022-09-10T13:09:29.558Z,2.00
2022-09-10T13:12:00.267Z,2.28
2022-09-10T13:14:36.927Z,2.10
2022-09-10T13:17:05.893Z,2.10
2022-09-10T13:19:33.049Z,2.05
2022-09-10T13:22:00.144Z,2.20
2022-09-10T13:24:34.060Z,2.10
2022-09-10T13:27:21.547Z,2.40
2022-09-10T13:30:11.698Z,2.35
2022-09-10T13:32:50.374Z,2.25
2022-09-10T13:35:58.650Z,2.03
2022-09-10T13:38:43.659Z,2.40
2022-09-10T13:41:40.620Z,2.05
2022-09-10T13:44:32.789Z,2.33
2022-09-10T13:47:10.228Z,2.40
2022-09-10T13:50:14.387Z,2.30
2022-09-10T13:52:58.023Z,2.15
2022-09-10T13:55:39.802Z,2.10
2022-09-10T13:58:14.955Z,2.13
2022-09-10T14:00:57.144Z,2.38
2022-09-10T14:03:36.391Z,2.60
2022-09-10T14:06:05.129Z,1.85
2022-09-10T14:08:43.922Z,2.17
2022-09-10T14:11:14.070Z,2.13
2022-09-10T14:14:17.540Z,2.45
2022-09-10T14:16:58.852Z,2.42
2022-09-10T14:19:59.485Z,2.50
2022-09-10T14:22:28.899Z,3.15
2022-09-10T14:25:01.692Z,2.33
2022-09-10T14:27:37.392Z,1.95
2022-09-10T14:30:32.109Z,2.67
2022-09-10T14:35:49.520Z,2.70
2022-09-10T14:38:36.435Z,2.35
2022-09-10T14:41:17.383Z,2.40
2022-09-10T14:43:48.457Z,2.20
2022-09-10T14:46:57.795Z,2.10
2022-09-10T14:49:35.861Z,2.00
2022-09-10T14:52:11.091Z,2.17
2022-09-10T14:54:38.123Z,2.20
2022-09-10T14:57:15.343Z,2.13
2022-09-10T14:59:44.863Z,2.13
2022-09-10T15:02:43.513Z,2.22
2022-09-10T15:05:16.755Z,2.70
2022-09-10T15:07:49.044Z,2.47
2022-09-10T15:10:22.305Z,2.85
2022-09-10T15:12:54.250Z,2.88
2022-09-10T15:15:21.113Z,3.03
2022-09-10T15:17:48.166Z,2.60
2022-09-10T15:20:17.075Z,3.40
2022-09-10T15:22:44.855Z,3.00
2022-09-10T15:25:39.061Z,3.03
2022-09-10T15:28:15.103Z,2.53
2022-09-10T15:30:42.281Z,3.08
2022-09-10T15:33:14.905Z,3.05
2022-09-10T15:35:42.279Z,3.13
2022-09-10T15:38:13.405Z,3.88
2022-09-10T15:40:40.617Z,4.07
2022-09-10T15:43:11.217Z,4.00
2022-09-10T15:45:40.193Z,3.65
2022-09-10T15:50:38.791Z,3.83
2022-09-10T15:53:11.905Z,3.55
2022-09-10T15:55:39.972Z,3.13
2022-09-10T15:58:08.463Z,2.92
2022-09-10T16:00:38.384Z,4.25
2022-09-10T16:03:05.405Z,4.30
2022-09-10T16:05:35.645Z,4.20
2022-09-10T16:08:02.821Z,4.20
2022-09-10T16:10:30.923Z,4.93
2022-09-10T16:13:02.686Z,4.38
2022-09-10T16:15:35.518Z,4.90
2022-09-10T16:18:03.023Z,4.55
2022-09-10T16:20:35.660Z,3.95
2022-09-10T16:23:08.983Z,3.58
2022-09-10T16:25:37.179Z,3.85
2022-09-10T16:28:04.561Z,3.42
2022-09-10T16:30:35.188Z,3.72
2022-09-10T16:33:02.605Z,3.50
2022-09-10T16:35:29.762Z,3.50
2022-09-10T16:37:57.254Z,4.15
2022-09-10T16:40:27.221Z,3.50
2022-09-10T16:42:56.246Z,3.67
2022-09-10T16:45:25.815Z,4.20
2022-09-10T16:47:55.401Z,3.72
2022-09-10T16:50:26.918Z,3.28
2022-09-10T16:52:58.790Z,3.63
2022-09-10T16:55:30.126Z,4.10
2022-09-10T17:01:43.816Z,3.53
2022-09-10T17:09:00.135Z,4.20
2022-09-10T17:11:32.996Z,4.32
2022-09-10T17:14:02.863Z,4.38
2022-09-10T17:16:51.627Z,3.90
2022-09-10T17:19:24.207Z,3.92
2022-09-10T17:21:55.952Z,4.20
2022-09-10T17:24:34.906Z,4.30
2022-09-10T17:27:57.775Z,4.00
2022-09-10T17:31:49.541Z,4.30
2022-09-10T17:34:24.334Z,4.22
2022-09-10T17:37:25.653Z,4.50
2022-09-10T17:40:15.109Z,4.70
2022-09-10T17:42:45.816Z,4.43
2022-09-10T17:45:19.857Z,4.80
2022-09-10T17:47:48.748Z,4.68
2022-09-10T17:50:15.957Z,5.10
2022-09-10T17:52:46.225Z,4.47
2022-09-10T17:55:13.291Z,4.53
2022-09-10T17:57:40.788Z,4.85
2022-09-10T18:00:11.582Z,4.68
2022-09-10T18:02:38.904Z,5.03
2022-09-10T18:05:11.071Z,5.43
2022-09-10T18:07:47.443Z,5.03
2022-09-10T18:10:14.803Z,5.25
2022-09-10T18:12:44.009Z,4.80
2022-09-10T18:15:13.541Z,5.47
2022-09-10T18:17:40.527Z,5.70
2022-09-10T18:20:11.128Z,5.28
2022-09-10T18:22:38.529Z,6.10
2022-09-10T18:25:06.774Z,6.57
2022-09-10T18:27:34.421Z,5.55
2022-09-10T18:30:02.280Z,6.63
2022-09-10T18:32:29.331Z,7.25
2022-09-10T18:34:57.608Z,6.85
2022-09-10T18:37:25.946Z,5.75
2022-09-10T18:39:54.644Z,5.40
2022-09-10T18:42:29.653Z,5.85
2022-09-10T18:44:56.955Z,6.22
2022-09-10T18:47:43.482Z,6.43
2022-09-10T18:50:13.295Z,6.05
2022-09-10T18:52:41.851Z,5.95
2022-09-10T18:55:12.118Z,6.72
2022-09-10T18:57:39.363Z,6.05
2022-09-10T19:00:07.866Z,6.55
2022-09-10T19:02:35.588Z,6.43
2022-09-10T19:05:12.041Z,7.15
2022-09-10T19:07:39.817Z,6.63
2022-09-10T19:10:07.989Z,6.72
2022-09-10T19:12:35.496Z,7.07
2022-09-10T19:15:02.521Z,7.15
2022-09-10T19:17:32.248Z,7.80
2022-09-10T19:19:59.336Z,8.13
2022-09-10T19:22:26.702Z,8.13
2022-09-10T19:24:59.137Z,7.90
2022-09-10T19:27:26.520Z,8.38
2022-09-10T19:29:54.169Z,8.32
2022-09-10T19:32:21.999Z,8.15
2022-09-10T19:34:55.716Z,8.60
2022-09-10T19:37:26.497Z,8.45
2022-09-10T19:39:57.446Z,9.00
2022-09-10T19:42:24.983Z,8.75
2022-09-10T19:44:52.257Z,7.55
2022-09-10T19:47:19.769Z,7.82
2022-09-10T19:49:47.732Z,9.00
2022-09-10T19:52:14.978Z,8.93
2022-09-10T19:54:45.194Z,9.20
2022-09-10T19:57:16.106Z,9.18
2022-09-10T19:59:43.062Z,9.48
2022-09-10T20:02:10.364Z,9.50
2022-09-10T20:04:37.487Z,9.13
2022-09-10T20:07:05.038Z,9.60
2022-09-10T20:09:39.227Z,9.95
2022-09-10T20:12:07.449Z,9.25
2022-09-10T20:14:34.604Z,9.98
2022-09-10T20:17:03.523Z,10.25
2022-09-10T20:19:30.984Z,9.35
2022-09-10T20:21:58.015Z,9.68
2022-09-10T20:24:26.860Z,9.82
2022-09-10T20:26:54.621Z,9.40
2022-09-10T20:29:24.634Z,10.63
2022-09-10T20:31:53.093Z,10.60
2022-09-10T20:34:22.886Z,10.15
2022-09-10T20:36:53.170Z,10.27
2022-09-10T20:39:25.492Z,10.65
2022-09-10T20:41:53.071Z,10.35
2022-09-10T20:44:20.843Z,10.55
2022-09-10T20:46:47.846Z,10.88
2022-09-10T20:49:16.218Z,10.52
2022-09-10T20:51:44.097Z,10.38
2022-09-10T20:54:14.042Z,10.82
2022-09-10T20:56:41.203Z,11.40
2022-09-10T20:59:08.469Z,11.27
2022-09-10T21:01:35.430Z,12.27
2022-09-10T21:04:04.166Z,11.88
2022-09-10T21:06:33.485Z,11.75
2022-09-10T21:09:02.148Z,11.85
2022-09-10T21:11:31.313Z,11.30
2022-09-10T21:14:00.629Z,11.73
2022-09-10T21:16:39.572Z,11.25
2022-09-10T21:19:14.448Z,12.05
2022-09-10T21:21:42.599Z,12.18
2022-09-10T21:24:14.927Z,13.23
2022-09-10T21:26:45.939Z,13.35
2022-09-10T21:29:15.580Z,13.52
2022-09-10T21:31:43.443Z,13.25
2022-09-10T21:34:10.641Z,12.75
2022-09-10T21:36:39.287Z,13.27
2022-09-10T21:39:08.171Z,13.48
2022-09-10T21:41:42.746Z,14.65
2022-09-10T21:44:20.014Z,14.45
2022-09-10T21:46:48.392Z,13.30
2022-09-10T21:49:19.051Z,15.15
2022-09-10T21:51:46.049Z,15.23
2022-09-10T21:54:16.003Z,14.25
2022-09-10T21:56:42.918Z,13.88
2022-09-10T21:59:10.046Z,16.73
2022-09-10T22:01:36.990Z,17.00
2022-09-10T22:04:04.094Z,17.00
2022-09-10T22:06:35.430Z,16.88
2022-09-10T22:09:08.598Z,16.98
2022-09-10T22:11:38.930Z,18.23
2022-09-10T22:14:08.279Z,19.27
2022-09-10T22:16:35.642Z,17.48
2022-09-10T22:19:06.113Z,18.63
2022-09-10T22:21:33.925Z,18.23
2022-09-10T22:24:00.881Z,16.50
2022-09-10T22:26:28.607Z,18.45
2022-09-10T22:28:59.267Z,19.38
2022-09-10T22:31:28.901Z,18.85
2022-09-10T22:36:31.556Z,18.08
2022-09-10T22:39:00.206Z,18.65
2022-09-10T22:41:28.449Z,19.88
2022-09-10T22:43:55.607Z,20.08
2022-09-10T22:46:24.083Z,19.65
2022-09-10T22:48:51.107Z,20.50
2022-09-10T22:51:20.558Z,19.73
2022-09-10T22:53:48.208Z,20.15
2022-09-10T22:56:17.669Z,20.90
2022-09-10T22:58:45.870Z,21.60
2022-09-10T23:01:15.370Z,21.88
2022-09-10T23:06:12.854Z,20.05
2022-09-10T23:11:21.196Z,20.20
2022-09-10T23:13:54.655Z,21.02
2022-09-10T23:16:32.353Z,21.90
2022-09-10T23:19:01.150Z,21.30
2022-09-10T23:21:29.587Z,22.92
2022-09-10T23:23:59.070Z,23.42
2022-09-10T23:26:27.026Z,22.98
2022-09-10T23:28:54.777Z,23.55
2022-09-10T23:31:26.561Z,27.50
2022-09-10T23:33:59.116Z,27.75
2022-09-10T23:36:31.417Z,24.80
2022-09-10T23:38:59.170Z,24.27
2022-09-10T23:41:26.536Z,25.48
2022-09-10T23:43:54.091Z,25.58
2022-09-10T23:46:21.318Z,25.73
2022-09-10T23:48:49.426Z,26.75
2022-09-10T23:51:19.201Z,24.90
2022-09-10T23:53:47.212Z,26.65
2022-09-10T23:56:18.550Z,25.67
2022-09-10T23:58:46.026Z,26.80
